sensor_id;sensor_type;location;lat;lon;timestamp;P1;durP1;ratioP1;P2;durP2;ratioP2
56770;SDS011;42641;59.794;17.616;2023-04-07T00:02:24;1.90;;;1.70;;
56770;SDS011;42641;59.794;17.616;2023-04-07T00:04:51;2.07;;;1.87;;
56770;SDS011;42641;59.794;17.616;2023-04-07T00:07:18;2.33;;;1.90;;
56770;SDS011;42641;59.794;17.616;2023-04-07T00:09:44;2.17;;;2.07;;
56770;SDS011;42641;59.794;17.616;2023-04-07T00:12:11;2.10;;;1.93;;
56770;SDS011;42641;59.794;17.616;2023-04-07T00:14:37;2.30;;;1.90;;
56770;SDS011;42641;59.794;17.616;2023-04-07T00:17:03;2.17;;;1.97;;
56770;SDS011;42641;59.794;17.616;2023-04-07T00:19:30;2.43;;;1.53;;
56770;SDS011;42641;59.794;17.616;2023-04-07T00:21:58;2.00;;;1.80;;
56770;SDS011;42641;59.794;17.616;2023-04-07T00:24:24;2.23;;;2.00;;
56770;SDS011;42641;59.794;17.616;2023-04-07T00:26:52;2.10;;;1.70;;
56770;SDS011;42641;59.794;17.616;2023-04-07T00:29:18;2.00;;;1.80;;
56770;SDS011;42641;59.794;17.616;2023-04-07T00:31:44;3.10;;;2.17;;
56770;SDS011;42641;59.794;17.616;2023-04-07T00:34:11;1.97;;;1.70;;
56770;SDS011;42641;59.794;17.616;2023-04-07T00:36:37;2.10;;;1.90;;
56770;SDS011;42641;59.794;17.616;2023-04-07T00:39:04;1.87;;;1.77;;
56770;SDS011;42641;59.794;17.616;2023-04-07T00:41:32;2.07;;;1.87;;
56770;SDS011;42641;59.794;17.616;2023-04-07T00:44:00;2.03;;;1.80;;
56770;SDS011;42641;59.794;17.616;2023-04-07T00:46:27;1.90;;;1.80;;
56770;SDS011;42641;59.794;17.616;2023-04-07T00:48:53;2.20;;;1.90;;
56770;SDS011;42641;59.794;17.616;2023-04-07T00:51:20;1.87;;;1.77;;
56770;SDS011;42641;59.794;17.616;2023-04-07T00:53:47;2.50;;;1.90;;
56770;SDS011;42641;59.794;17.616;2023-04-07T00:56:14;1.90;;;1.80;;
56770;SDS011;42641;59.794;17.616;2023-04-07T00:58:41;1.70;;;1.60;;
56770;SDS011;42641;59.794;17.616;2023-04-07T01:01:08;2.70;;;1.97;;
56770;SDS011;42641;59.794;17.616;2023-04-07T01:03:47;2.03;;;1.83;;
56770;SDS011;42641;59.794;17.616;2023-04-07T01:06:19;2.00;;;1.90;;
56770;SDS011;42641;59.794;17.616;2023-04-07T01:11:43;1.70;;;1.60;;
56770;SDS011;42641;59.794;17.616;2023-04-07T01:14:28;1.90;;;1.70;;
56770;SDS011;42641;59.794;17.616;2023-04-07T01:17:04;2.13;;;1.93;;
56770;SDS011;42641;59.794;17.616;2023-04-07T01:19:33;1.90;;;1.80;;
56770;SDS011;42641;59.794;17.616;2023-04-07T01:22:05;2.00;;;1.80;;
56770;SDS011;42641;59.794;17.616;2023-04-07T01:28:10;2.17;;;1.97;;
56770;SDS011;42641;59.794;17.616;2023-04-07T01:30:17;2.13;;;1.93;;
56770;SDS011;42641;59.794;17.616;2023-04-07T01:32:44;1.97;;;1.87;;
56770;SDS011;42641;59.794;17.616;2023-04-07T01:35:16;2.30;;;2.10;;
56770;SDS011;42641;59.794;17.616;2023-04-07T01:37:44;2.30;;;2.10;;
56770;SDS011;42641;59.794;17.616;2023-04-07T01:40:13;2.50;;;2.23;;
56770;SDS011;42641;59.794;17.616;2023-04-07T01:42:41;2.37;;;2.17;;
56770;SDS011;42641;59.794;17.616;2023-04-07T01:45:09;2.53;;;2.13;;
56770;SDS011;42641;59.794;17.616;2023-04-07T01:47:36;2.20;;;2.00;;
56770;SDS011;42641;59.794;17.616;2023-04-07T01:50:04;2.73;;;2.30;;
56770;SDS011;42641;59.794;17.616;2023-04-07T01:52:34;2.37;;;2.10;;
56770;SDS011;42641;59.794;17.616;2023-04-07T01:55:02;2.30;;;2.10;;
56770;SDS011;42641;59.794;17.616;2023-04-07T01:57:31;3.20;;;2.30;;
56770;SDS011;42641;59.794;17.616;2023-04-07T02:00:03;2.40;;;2.20;;
56770;SDS011;42641;59.794;17.616;2023-04-07T02:02:43;2.53;;;2.33;;
56770;SDS011;42641;59.794;17.616;2023-04-07T02:05:12;2.40;;;2.20;;
56770;SDS011;42641;59.794;17.616;2023-04-07T02:07:50;2.50;;;2.30;;
56770;SDS011;42641;59.794;17.616;2023-04-07T02:10:21;2.10;;;1.90;;
56770;SDS011;42641;59.794;17.616;2023-04-07T02:12:52;2.20;;;2.00;;
56770;SDS011;42641;59.794;17.616;2023-04-07T02:15:21;2.30;;;2.10;;
56770;SDS011;42641;59.794;17.616;2023-04-07T02:17:50;2.57;;;2.07;;
56770;SDS011;42641;59.794;17.616;2023-04-07T02:20:19;2.37;;;2.13;;
56770;SDS011;42641;59.794;17.616;2023-04-07T02:22:47;2.37;;;2.17;;
56770;SDS011;42641;59.794;17.616;2023-04-07T02:25:20;2.30;;;2.10;;
56770;SDS011;42641;59.794;17.616;2023-04-07T02:27:52;2.50;;;2.30;;
56770;SDS011;42641;59.794;17.616;2023-04-07T02:30:21;2.60;;;2.40;;
56770;SDS011;42641;59.794;17.616;2023-04-07T02:32:47;2.30;;;2.10;;
56770;SDS011;42641;59.794;17.616;2023-04-07T02:35:14;1.80;;;1.70;;
56770;SDS011;42641;59.794;17.616;2023-04-07T02:37:44;3.03;;;2.10;;
56770;SDS011;42641;59.794;17.616;2023-04-07T02:40:11;2.27;;;2.07;;
56770;SDS011;42641;59.794;17.616;2023-04-07T02:42:38;2.10;;;1.90;;
56770;SDS011;42641;59.794;17.616;2023-04-07T02:45:05;2.07;;;1.97;;
56770;SDS011;42641;59.794;17.616;2023-04-07T02:47:33;2.27;;;2.07;;
56770;SDS011;42641;59.794;17.616;2023-04-07T02:50:01;2.20;;;1.80;;
56770;SDS011;42641;59.794;17.616;2023-04-07T02:52:27;1.90;;;1.80;;
56770;SDS011;42641;59.794;17.616;2023-04-07T02:54:54;1.67;;;1.57;;
56770;SDS011;42641;59.794;17.616;2023-04-07T02:57:24;1.73;;;1.60;;
56770;SDS011;42641;59.794;17.616;2023-04-07T02:59:54;1.80;;;1.70;;
56770;SDS011;42641;59.794;17.616;2023-04-07T03:02:25;1.70;;;1.60;;
56770;SDS011;42641;59.794;17.616;2023-04-07T03:04:51;1.80;;;1.70;;
56770;SDS011;42641;59.794;17.616;2023-04-07T03:07:19;1.80;;;1.60;;
56770;SDS011;42641;59.794;17.616;2023-04-07T03:09:48;1.80;;;1.70;;
56770;SDS011;42641;59.794;17.616;2023-04-07T03:12:17;1.60;;;1.50;;
56770;SDS011;42641;59.794;17.616;2023-04-07T03:14:43;1.70;;;1.60;;
56770;SDS011;42641;59.794;17.616;2023-04-07T03:17:10;1.77;;;1.67;;
56770;SDS011;42641;59.794;17.616;2023-04-07T03:19:36;1.90;;;1.80;;
56770;SDS011;42641;59.794;17.616;2023-04-07T03:22:03;1.70;;;1.60;;
56770;SDS011;42641;59.794;17.616;2023-04-07T03:24:33;1.70;;;1.60;;
56770;SDS011;42641;59.794;17.616;2023-04-07T03:27:01;1.70;;;1.60;;
56770;SDS011;42641;59.794;17.616;2023-04-07T03:29:42;1.90;;;1.60;;
56770;SDS011;42641;59.794;17.616;2023-04-07T03:32:11;2.00;;;1.80;;
56770;SDS011;42641;59.794;17.616;2023-04-07T03:34:37;1.83;;;1.67;;
56770;SDS011;42641;59.794;17.616;2023-04-07T03:37:04;1.80;;;1.70;;
56770;SDS011;42641;59.794;17.616;2023-04-07T03:39:33;2.03;;;1.83;;
56770;SDS011;42641;59.794;17.616;2023-04-07T03:42:04;1.60;;;1.50;;
56770;SDS011;42641;59.794;17.616;2023-04-07T03:44:32;1.60;;;1.50;;
56770;SDS011;42641;59.794;17.616;2023-04-07T03:46:59;1.80;;;1.60;;
56770;SDS011;42641;59.794;17.616;2023-04-07T03:49:27;2.10;;;1.90;;
56770;SDS011;42641;59.794;17.616;2023-04-07T03:51:56;1.80;;;1.70;;
56770;SDS011;42641;59.794;17.616;2023-04-07T03:54:23;2.10;;;1.70;;
56770;SDS011;42641;59.794;17.616;2023-04-07T03:56:49;1.90;;;1.80;;
56770;SDS011;42641;59.794;17.616;2023-04-07T03:59:20;1.63;;;1.53;;
56770;SDS011;42641;59.794;17.616;2023-04-07T04:01:55;1.77;;;1.67;;
56770;SDS011;42641;59.794;17.616;2023-04-07T04:04:22;1.83;;;1.70;;
56770;SDS011;42641;59.794;17.616;2023-04-07T04:06:49;1.80;;;1.70;;
56770;SDS011;42641;59.794;17.616;2023-04-07T04:09:36;2.87;;;1.60;;
56770;SDS011;42641;59.794;17.616;2023-04-07T04:12:03;1.80;;;1.70;;
56770;SDS011;42641;59.794;17.616;2023-04-07T04:14:31;1.60;;;1.50;;
56770;SDS011;42641;59.794;17.616;2023-04-07T04:17:00;1.90;;;1.80;;
56770;SDS011;42641;59.794;17.616;2023-04-07T04:19:34;1.80;;;1.70;;
56770;SDS011;42641;59.794;17.616;2023-04-07T04:22:08;1.67;;;1.57;;
56770;SDS011;42641;59.794;17.616;2023-04-07T04:24:41;2.23;;;1.77;;
56770;SDS011;42641;59.794;17.616;2023-04-07T04:27:08;1.80;;;1.70;;
56770;SDS011;42641;59.794;17.616;2023-04-07T04:29:35;1.90;;;1.80;;
56770;SDS011;42641;59.794;17.616;2023-04-07T04:32:06;1.50;;;1.40;;
56770;SDS011;42641;59.794;17.616;2023-04-07T04:34:33;1.77;;;1.67;;
56770;SDS011;42641;59.794;17.616;2023-04-07T04:36:59;1.70;;;1.60;;
56770;SDS011;42641;59.794;17.616;2023-04-07T04:39:26;1.83;;;1.67;;
56770;SDS011;42641;59.794;17.616;2023-04-07T04:41:52;2.03;;;1.93;;
56770;SDS011;42641;59.794;17.616;2023-04-07T04:44:23;2.10;;;1.90;;
56770;SDS011;42641;59.794;17.616;2023-04-07T04:46:50;1.90;;;1.80;;
56770;SDS011;42641;59.794;17.616;2023-04-07T04:49:17;2.03;;;1.77;;
56770;SDS011;42641;59.794;17.616;2023-04-07T04:51:47;2.13;;;1.90;;
56770;SDS011;42641;59.794;17.616;2023-04-07T04:54:17;2.63;;;2.20;;
56770;SDS011;42641;59.794;17.616;2023-04-07T04:56:44;3.00;;;2.20;;
56770;SDS011;42641;59.794;17.616;2023-04-07T04:59:11;1.93;;;1.83;;
56770;SDS011;42641;59.794;17.616;2023-04-07T05:01:50;2.10;;;1.90;;
56770;SDS011;42641;59.794;17.616;2023-04-07T05:04:17;2.17;;;1.90;;
56770;SDS011;42641;59.794;17.616;2023-04-07T05:06:49;1.70;;;1.60;;
56770;SDS011;42641;59.794;17.616;2023-04-07T05:09:19;2.10;;;1.90;;
56770;SDS011;42641;59.794;17.616;2023-04-07T05:11:47;2.00;;;1.90;;
56770;SDS011;42641;59.794;17.616;2023-04-07T05:14:14;2.23;;;1.90;;
56770;SDS011;42641;59.794;17.616;2023-04-07T05:16:46;2.00;;;1.80;;
56770;SDS011;42641;59.794;17.616;2023-04-07T05:19:17;2.07;;;1.80;;
56770;SDS011;42641;59.794;17.616;2023-04-07T05:21:45;2.03;;;1.83;;
56770;SDS011;42641;59.794;17.616;2023-04-07T05:24:12;1.83;;;1.73;;
56770;SDS011;42641;59.794;17.616;2023-04-07T05:26:38;1.70;;;1.60;;
56770;SDS011;42641;59.794;17.616;2023-04-07T05:29:05;1.97;;;1.50;;
56770;SDS011;42641;59.794;17.616;2023-04-07T05:31:32;1.83;;;1.57;;
56770;SDS011;42641;59.794;17.616;2023-04-07T05:34:02;1.40;;;1.30;;
56770;SDS011;42641;59.794;17.616;2023-04-07T05:36:34;1.50;;;1.40;;
56770;SDS011;42641;59.794;17.616;2023-04-07T05:39:01;3.13;;;1.60;;
56770;SDS011;42641;59.794;17.616;2023-04-07T05:41:27;1.50;;;1.40;;
56770;SDS011;42641;59.794;17.616;2023-04-07T05:43:54;1.60;;;1.50;;
56770;SDS011;42641;59.794;17.616;2023-04-07T05:46:21;2.33;;;1.50;;
56770;SDS011;42641;59.794;17.616;2023-04-07T05:48:52;1.60;;;1.50;;
56770;SDS011;42641;59.794;17.616;2023-04-07T05:51:20;1.70;;;1.60;;
56770;SDS011;42641;59.794;17.616;2023-04-07T05:53:46;1.67;;;1.50;;
56770;SDS011;42641;59.794;17.616;2023-04-07T05:56:15;1.50;;;1.40;;
56770;SDS011;42641;59.794;17.616;2023-04-07T05:58:44;1.50;;;1.40;;
56770;SDS011;42641;59.794;17.616;2023-04-07T06:01:12;1.77;;;1.63;;
56770;SDS011;42641;59.794;17.616;2023-04-07T06:03:39;1.73;;;1.60;;
56770;SDS011;42641;59.794;17.616;2023-04-07T06:06:24;1.70;;;1.60;;
56770;SDS011;42641;59.794;17.616;2023-04-07T06:08:51;1.60;;;1.50;;
56770;SDS011;42641;59.794;17.616;2023-04-07T06:11:18;1.50;;;1.40;;
56770;SDS011;42641;59.794;17.616;2023-04-07T06:13:45;1.70;;;1.60;;
56770;SDS011;42641;59.794;17.616;2023-04-07T06:16:12;1.50;;;1.40;;
56770;SDS011;42641;59.794;17.616;2023-04-07T06:18:39;1.60;;;1.50;;
56770;SDS011;42641;59.794;17.616;2023-04-07T06:21:06;1.93;;;1.60;;
56770;SDS011;42641;59.794;17.616;2023-04-07T06:23:32;1.53;;;1.43;;
56770;SDS011;42641;59.794;17.616;2023-04-07T06:25:59;1.67;;;1.57;;
56770;SDS011;42641;59.794;17.616;2023-04-07T06:28:27;1.80;;;1.70;;
56770;SDS011;42641;59.794;17.616;2023-04-07T06:30:54;1.60;;;1.50;;
56770;SDS011;42641;59.794;17.616;2023-04-07T06:33:20;1.57;;;1.47;;
56770;SDS011;42641;59.794;17.616;2023-04-07T06:35:50;1.50;;;1.40;;
56770;SDS011;42641;59.794;17.616;2023-04-07T06:38:17;1.50;;;1.40;;
56770;SDS011;42641;59.794;17.616;2023-04-07T06:40:43;1.60;;;1.50;;
56770;SDS011;42641;59.794;17.616;2023-04-07T06:43:10;2.80;;;1.53;;
56770;SDS011;42641;59.794;17.616;2023-04-07T06:45:41;1.50;;;1.40;;
56770;SDS011;42641;59.794;17.616;2023-04-07T06:48:07;1.40;;;1.30;;
56770;SDS011;42641;59.794;17.616;2023-04-07T06:50:36;1.87;;;1.53;;
56770;SDS011;42641;59.794;17.616;2023-04-07T06:53:05;1.50;;;1.40;;
56770;SDS011;42641;59.794;17.616;2023-04-07T06:55:32;1.50;;;1.40;;
56770;SDS011;42641;59.794;17.616;2023-04-07T06:57:58;1.60;;;1.50;;
56770;SDS011;42641;59.794;17.616;2023-04-07T07:00:24;1.63;;;1.53;;
56770;SDS011;42641;59.794;17.616;2023-04-07T07:02:54;1.60;;;1.50;;
56770;SDS011;42641;59.794;17.616;2023-04-07T07:05:21;1.70;;;1.60;;
56770;SDS011;42641;59.794;17.616;2023-04-07T07:07:48;1.70;;;1.60;;
56770;SDS011;42641;59.794;17.616;2023-04-07T07:10:15;1.60;;;1.50;;
56770;SDS011;42641;59.794;17.616;2023-04-07T07:12:42;1.70;;;1.60;;
56770;SDS011;42641;59.794;17.616;2023-04-07T07:15:08;1.90;;;1.80;;
56770;SDS011;42641;59.794;17.616;2023-04-07T07:17:35;1.87;;;1.67;;
56770;SDS011;42641;59.794;17.616;2023-04-07T07:20:02;3.47;;;1.97;;
56770;SDS011;42641;59.794;17.616;2023-04-07T07:22:29;1.70;;;1.60;;
56770;SDS011;42641;59.794;17.616;2023-04-07T07:24:55;2.00;;;1.83;;
56770;SDS011;42641;59.794;17.616;2023-04-07T07:27:21;1.77;;;1.67;;
56770;SDS011;42641;59.794;17.616;2023-04-07T07:29:48;3.60;;;2.00;;
56770;SDS011;42641;59.794;17.616;2023-04-07T07:32:14;1.87;;;1.60;;
56770;SDS011;42641;59.794;17.616;2023-04-07T07:34:41;4.00;;;1.77;;
56770;SDS011;42641;59.794;17.616;2023-04-07T07:37:07;2.20;;;1.73;;
56770;SDS011;42641;59.794;17.616;2023-04-07T07:39:34;2.10;;;1.90;;
56770;SDS011;42641;59.794;17.616;2023-04-07T07:42:01;1.87;;;1.60;;
56770;SDS011;42641;59.794;17.616;2023-04-07T07:44:27;1.80;;;1.70;;
56770;SDS011;42641;59.794;17.616;2023-04-07T07:46:54;1.90;;;1.80;;
56770;SDS011;42641;59.794;17.616;2023-04-07T07:49:20;3.90;;;1.63;;
56770;SDS011;42641;59.794;17.616;2023-04-07T07:51:47;1.93;;;1.60;;
56770;SDS011;42641;59.794;17.616;2023-04-07T07:54:13;1.87;;;1.70;;
56770;SDS011;42641;59.794;17.616;2023-04-07T07:56:40;2.43;;;1.80;;
56770;SDS011;42641;59.794;17.616;2023-04-07T07:59:06;1.80;;;1.50;;
56770;SDS011;42641;59.794;17.616;2023-04-07T08:01:33;2.33;;;1.90;;
56770;SDS011;42641;59.794;17.616;2023-04-07T08:04:00;1.90;;;1.70;;
56770;SDS011;42641;59.794;17.616;2023-04-07T08:06:26;2.03;;;1.70;;
56770;SDS011;42641;59.794;17.616;2023-04-07T08:08:56;2.03;;;1.80;;
56770;SDS011;42641;59.794;17.616;2023-04-07T08:11:23;2.23;;;2.03;;
56770;SDS011;42641;59.794;17.616;2023-04-07T08:13:49;2.23;;;2.03;;
56770;SDS011;42641;59.794;17.616;2023-04-07T08:16:16;2.90;;;2.20;;
56770;SDS011;42641;59.794;17.616;2023-04-07T08:18:42;3.90;;;2.10;;
56770;SDS011;42641;59.794;17.616;2023-04-07T08:21:09;2.87;;;2.37;;
56770;SDS011;42641;59.794;17.616;2023-04-07T08:23:35;2.90;;;2.43;;
56770;SDS011;42641;59.794;17.616;2023-04-07T08:26:02;3.27;;;2.37;;
56770;SDS011;42641;59.794;17.616;2023-04-07T08:28:28;2.80;;;2.37;;
56770;SDS011;42641;59.794;17.616;2023-04-07T08:30:55;2.70;;;2.40;;
56770;SDS011;42641;59.794;17.616;2023-04-07T08:33:21;4.60;;;2.57;;
56770;SDS011;42641;59.794;17.616;2023-04-07T08:35:48;4.00;;;2.20;;
56770;SDS011;42641;59.794;17.616;2023-04-07T08:38:14;4.27;;;2.60;;
56770;SDS011;42641;59.794;17.616;2023-04-07T08:40:41;2.33;;;2.10;;
56770;SDS011;42641;59.794;17.616;2023-04-07T08:43:08;3.63;;;2.67;;
56770;SDS011;42641;59.794;17.616;2023-04-07T08:45:38;4.23;;;3.03;;
56770;SDS011;42641;59.794;17.616;2023-04-07T08:48:17;3.17;;;2.37;;
56770;SDS011;42641;59.794;17.616;2023-04-07T08:50:45;6.27;;;2.73;;
56770;SDS011;42641;59.794;17.616;2023-04-07T08:53:17;4.00;;;2.60;;
56770;SDS011;42641;59.794;17.616;2023-04-07T08:55:49;3.23;;;2.70;;
56770;SDS011;42641;59.794;17.616;2023-04-07T08:58:15;7.47;;;2.50;;
56770;SDS011;42641;59.794;17.616;2023-04-07T09:00:43;3.40;;;2.70;;
56770;SDS011;42641;59.794;17.616;2023-04-07T09:03:14;3.20;;;2.70;;
56770;SDS011;42641;59.794;17.616;2023-04-07T09:05:43;3.10;;;2.57;;
56770;SDS011;42641;59.794;17.616;2023-04-07T09:08:11;2.83;;;2.53;;
56770;SDS011;42641;59.794;17.616;2023-04-07T09:10:37;2.63;;;2.20;;
56770;SDS011;42641;59.794;17.616;2023-04-07T09:13:04;4.17;;;2.73;;
56770;SDS011;42641;59.794;17.616;2023-04-07T09:15:30;3.07;;;2.40;;
56770;SDS011;42641;59.794;17.616;2023-04-07T09:17:57;4.37;;;2.17;;
56770;SDS011;42641;59.794;17.616;2023-04-07T09:20:24;3.43;;;2.40;;
56770;SDS011;42641;59.794;17.616;2023-04-07T09:22:50;2.93;;;2.20;;
56770;SDS011;42641;59.794;17.616;2023-04-07T09:25:21;2.67;;;2.10;;
56770;SDS011;42641;59.794;17.616;2023-04-07T09:28:01;3.73;;;2.27;;
56770;SDS011;42641;59.794;17.616;2023-04-07T09:30:29;2.90;;;2.30;;
56770;SDS011;42641;59.794;17.616;2023-04-07T09:32:57;3.13;;;2.50;;
56770;SDS011;42641;59.794;17.616;2023-04-07T09:35:24;3.30;;;2.10;;
56770;SDS011;42641;59.794;17.616;2023-04-07T09:38:02;2.67;;;2.23;;
56770;SDS011;42641;59.794;17.616;2023-04-07T09:40:31;2.77;;;2.13;;
56770;SDS011;42641;59.794;17.616;2023-04-07T09:42:58;2.57;;;2.37;;
56770;SDS011;42641;59.794;17.616;2023-04-07T09:45:25;4.60;;;2.20;;
56770;SDS011;42641;59.794;17.616;2023-04-07T09:47:52;4.27;;;2.47;;
56770;SDS011;42641;59.794;17.616;2023-04-07T09:52:59;2.90;;;1.97;;
56770;SDS011;42641;59.794;17.616;2023-04-07T09:55:27;2.30;;;2.10;;
56770;SDS011;42641;59.794;17.616;2023-04-07T09:57:55;3.40;;;2.30;;
56770;SDS011;42641;59.794;17.616;2023-04-07T10:00:21;2.30;;;2.10;;
56770;SDS011;42641;59.794;17.616;2023-04-07T10:02:49;3.90;;;1.83;;
56770;SDS011;42641;59.794;17.616;2023-04-07T10:05:16;4.83;;;2.10;;
56770;SDS011;42641;59.794;17.616;2023-04-07T10:07:42;4.23;;;2.00;;
56770;SDS011;42641;59.794;17.616;2023-04-07T10:10:09;4.33;;;2.23;;
56770;SDS011;42641;59.794;17.616;2023-04-07T10:12:36;3.27;;;2.07;;
56770;SDS011;42641;59.794;17.616;2023-04-07T10:15:03;2.70;;;2.07;;
56770;SDS011;42641;59.794;17.616;2023-04-07T10:17:30;4.70;;;2.40;;
56770;SDS011;42641;59.794;17.616;2023-04-07T10:19:58;4.73;;;2.37;;
56770;SDS011;42641;59.794;17.616;2023-04-07T10:22:26;2.40;;;2.20;;
56770;SDS011;42641;59.794;17.616;2023-04-07T10:24:55;2.50;;;2.30;;
56770;SDS011;42641;59.794;17.616;2023-04-07T10:27:28;2.40;;;2.10;;
56770;SDS011;42641;59.794;17.616;2023-04-07T10:30:06;3.70;;;1.90;;
56770;SDS011;42641;59.794;17.616;2023-04-07T10:32:47;3.23;;;2.17;;
56770;SDS011;42641;59.794;17.616;2023-04-07T10:35:15;7.97;;;2.63;;
56770;SDS011;42641;59.794;17.616;2023-04-07T10:38:08;2.93;;;2.20;;
56770;SDS011;42641;59.794;17.616;2023-04-07T10:40:41;2.97;;;2.20;;
56770;SDS011;42641;59.794;17.616;2023-04-07T10:43:08;3.90;;;2.37;;
56770;SDS011;42641;59.794;17.616;2023-04-07T10:48:17;2.87;;;2.27;;
56770;SDS011;42641;59.794;17.616;2023-04-07T10:50:44;2.37;;;2.17;;
56770;SDS011;42641;59.794;17.616;2023-04-07T10:53:32;2.63;;;2.30;;
56770;SDS011;42641;59.794;17.616;2023-04-07T10:56:01;4.50;;;2.30;;
56770;SDS011;42641;59.794;17.616;2023-04-07T10:58:31;2.20;;;1.83;;
56770;SDS011;42641;59.794;17.616;2023-04-07T11:03:25;3.27;;;2.30;;
56770;SDS011;42641;59.794;17.616;2023-04-07T11:06:03;2.70;;;2.23;;
56770;SDS011;42641;59.794;17.616;2023-04-07T11:08:31;6.80;;;2.47;;
56770;SDS011;42641;59.794;17.616;2023-04-07T11:11:05;5.23;;;2.30;;
56770;SDS011;42641;59.794;17.616;2023-04-07T11:13:40;2.50;;;2.30;;
56770;SDS011;42641;59.794;17.616;2023-04-07T11:16:14;2.73;;;2.10;;
56770;SDS011;42641;59.794;17.616;2023-04-07T11:18:42;5.50;;;2.30;;
56770;SDS011;42641;59.794;17.616;2023-04-07T11:21:09;3.83;;;2.07;;
56770;SDS011;42641;59.794;17.616;2023-04-07T11:23:39;3.53;;;2.30;;
56770;SDS011;42641;59.794;17.616;2023-04-07T11:26:08;2.30;;;2.10;;
56770;SDS011;42641;59.794;17.616;2023-04-07T11:28:45;2.83;;;2.00;;
56770;SDS011;42641;59.794;17.616;2023-04-07T11:31:35;3.03;;;2.37;;
56770;SDS011;42641;59.794;17.616;2023-04-07T11:34:02;3.53;;;2.27;;
56770;SDS011;42641;59.794;17.616;2023-04-07T11:39:00;3.50;;;2.10;;
56770;SDS011;42641;59.794;17.616;2023-04-07T11:41:28;3.47;;;1.90;;
56770;SDS011;42641;59.794;17.616;2023-04-07T11:44:07;2.70;;;2.40;;
56770;SDS011;42641;59.794;17.616;2023-04-07T11:46:35;4.87;;;1.93;;
56770;SDS011;42641;59.794;17.616;2023-04-07T11:49:09;2.20;;;2.00;;
56770;SDS011;42641;59.794;17.616;2023-04-07T11:51:42;3.80;;;1.97;;
56770;SDS011;42641;59.794;17.616;2023-04-07T11:54:10;3.23;;;2.07;;
56770;SDS011;42641;59.794;17.616;2023-04-07T11:56:46;3.00;;;1.83;;
56770;SDS011;42641;59.794;17.616;2023-04-07T11:59:19;2.27;;;2.07;;
56770;SDS011;42641;59.794;17.616;2023-04-07T12:01:50;2.93;;;1.60;;
56770;SDS011;42641;59.794;17.616;2023-04-07T12:04:17;2.77;;;1.70;;
56770;SDS011;42641;59.794;17.616;2023-04-07T12:06:45;2.70;;;1.93;;
56770;SDS011;42641;59.794;17.616;2023-04-07T12:11:54;1.90;;;1.80;;
56770;SDS011;42641;59.794;17.616;2023-04-07T12:14:22;2.10;;;1.90;;
56770;SDS011;42641;59.794;17.616;2023-04-07T12:16:49;2.50;;;2.07;;
56770;SDS011;42641;59.794;17.616;2023-04-07T12:19:16;4.23;;;2.13;;
56770;SDS011;42641;59.794;17.616;2023-04-07T12:21:43;2.87;;;1.73;;
56770;SDS011;42641;59.794;17.616;2023-04-07T12:24:10;3.03;;;2.07;;
56770;SDS011;42641;59.794;17.616;2023-04-07T12:26:36;2.50;;;1.90;;
56770;SDS011;42641;59.794;17.616;2023-04-07T12:29:03;2.10;;;1.77;;
56770;SDS011;42641;59.794;17.616;2023-04-07T12:31:33;2.43;;;2.03;;
56770;SDS011;42641;59.794;17.616;2023-04-07T12:33:59;2.27;;;1.80;;
56770;SDS011;42641;59.794;17.616;2023-04-07T12:36:27;2.63;;;2.03;;
56770;SDS011;42641;59.794;17.616;2023-04-07T12:38:54;3.20;;;1.93;;
56770;SDS011;42641;59.794;17.616;2023-04-07T12:41:21;3.77;;;2.23;;
56770;SDS011;42641;59.794;17.616;2023-04-07T13:01:40;2.90;;;2.10;;
56770;SDS011;42641;59.794;17.616;2023-04-07T13:04:06;2.37;;;2.17;;
56770;SDS011;42641;59.794;17.616;2023-04-07T13:06:33;3.30;;;2.03;;
56770;SDS011;42641;59.794;17.616;2023-04-07T13:09:00;2.37;;;1.83;;
56770;SDS011;42641;59.794;17.616;2023-04-07T13:20:36;2.53;;;1.90;;
56770;SDS011;42641;59.794;17.616;2023-04-07T13:23:02;2.97;;;1.80;;
56770;SDS011;42641;59.794;17.616;2023-04-07T13:25:29;1.90;;;1.80;;
56770;SDS011;42641;59.794;17.616;2023-04-07T13:27:56;3.47;;;2.20;;
56770;SDS011;42641;59.794;17.616;2023-04-07T13:30:24;2.40;;;1.80;;
56770;SDS011;42641;59.794;17.616;2023-04-07T13:32:52;2.47;;;2.27;;
56770;SDS011;42641;59.794;17.616;2023-04-07T13:35:18;3.17;;;2.20;;
56770;SDS011;42641;59.794;17.616;2023-04-07T13:37:45;2.53;;;1.97;;
56770;SDS011;42641;59.794;17.616;2023-04-07T13:40:12;3.53;;;2.20;;
56770;SDS011;42641;59.794;17.616;2023-04-07T13:42:39;4.83;;;2.30;;
56770;SDS011;42641;59.794;17.616;2023-04-07T13:45:05;3.23;;;2.20;;
56770;SDS011;42641;59.794;17.616;2023-04-07T13:47:32;2.23;;;2.00;;
56770;SDS011;42641;59.794;17.616;2023-04-07T13:50:00;2.63;;;2.20;;
56770;SDS011;42641;59.794;17.616;2023-04-07T15:14:08;1.80;;;1.70;;
56770;SDS011;42641;59.794;17.616;2023-04-07T15:16:34;2.47;;;1.80;;
56770;SDS011;42641;59.794;17.616;2023-04-07T15:19:01;1.70;;;1.60;;
56770;SDS011;42641;59.794;17.616;2023-04-07T15:21:28;3.03;;;1.80;;
56770;SDS011;42641;59.794;17.616;2023-04-07T15:23:54;5.00;;;2.17;;
56770;SDS011;42641;59.794;17.616;2023-04-07T15:26:20;1.83;;;1.70;;
56770;SDS011;42641;59.794;17.616;2023-04-07T15:28:47;3.13;;;1.80;;
56770;SDS011;42641;59.794;17.616;2023-04-07T15:31:14;1.70;;;1.57;;
56770;SDS011;42641;59.794;17.616;2023-04-07T15:33:40;1.90;;;1.70;;
56770;SDS011;42641;59.794;17.616;2023-04-07T15:36:08;1.60;;;1.50;;
56770;SDS011;42641;59.794;17.616;2023-04-07T15:38:35;2.03;;;1.60;;
56770;SDS011;42641;59.794;17.616;2023-04-07T15:41:04;2.33;;;1.70;;
56770;SDS011;42641;59.794;17.616;2023-04-07T15:43:30;2.53;;;1.70;;
56770;SDS011;42641;59.794;17.616;2023-04-07T15:45:57;1.80;;;1.40;;
56770;SDS011;42641;59.794;17.616;2023-04-07T15:48:23;1.60;;;1.50;;
56770;SDS011;42641;59.794;17.616;2023-04-07T15:53:31;1.50;;;1.40;;
56770;SDS011;42641;59.794;17.616;2023-04-07T16:08:10;1.50;;;1.40;;
56770;SDS011;42641;59.794;17.616;2023-04-07T16:13:18;2.73;;;1.47;;
56770;SDS011;42641;59.794;17.616;2023-04-07T16:15:44;2.53;;;1.40;;
56770;SDS011;42641;59.794;17.616;2023-04-07T16:20:47;3.63;;;1.57;;
56770;SDS011;42641;59.794;17.616;2023-04-07T16:23:14;1.40;;;1.30;;
56770;SDS011;42641;59.794;17.616;2023-04-07T16:25:40;1.40;;;1.30;;
56770;SDS011;42641;59.794;17.616;2023-04-07T16:33:56;1.87;;;1.60;;
56770;SDS011;42641;59.794;17.616;2023-04-07T16:36:23;1.60;;;1.50;;
56770;SDS011;42641;59.794;17.616;2023-04-07T16:38:51;1.60;;;1.50;;
56770;SDS011;42641;59.794;17.616;2023-04-07T16:41:17;1.93;;;1.73;;
56770;SDS011;42641;59.794;17.616;2023-04-07T16:43:44;2.33;;;1.57;;
56770;SDS011;42641;59.794;17.616;2023-04-07T16:46:11;2.43;;;1.70;;
56770;SDS011;42641;59.794;17.616;2023-04-07T16:48:37;2.27;;;1.60;;
56770;SDS011;42641;59.794;17.616;2023-04-07T16:53:48;1.70;;;1.60;;
56770;SDS011;42641;59.794;17.616;2023-04-07T16:58:42;1.67;;;1.33;;
56770;SDS011;42641;59.794;17.616;2023-04-07T17:01:08;1.80;;;1.70;;
56770;SDS011;42641;59.794;17.616;2023-04-07T17:03:35;2.50;;;1.73;;
56770;SDS011;42641;59.794;17.616;2023-04-07T17:06:02;1.70;;;1.60;;
56770;SDS011;42641;59.794;17.616;2023-04-07T17:08:35;3.27;;;2.03;;
56770;SDS011;42641;59.794;17.616;2023-04-07T17:11:07;2.13;;;1.80;;
56770;SDS011;42641;59.794;17.616;2023-04-07T17:13:37;2.63;;;1.67;;
56770;SDS011;42641;59.794;17.616;2023-04-07T17:16:05;1.97;;;1.80;;
56770;SDS011;42641;59.794;17.616;2023-04-07T17:18:36;3.57;;;2.00;;
56770;SDS011;42641;59.794;17.616;2023-04-07T17:21:03;2.17;;;1.97;;